sensor_id;sensor_type;location;lat;lon;timestamp;temperature;humidity
6581;DHT22;3324;50.796;7.228;2023-06-26T07:32:30;23.90;99.90
6581;DHT22;3324;50.796;7.228;2023-06-26T07:34:56;24.00;99.90
6581;DHT22;3324;50.796;7.228;2023-06-26T07:37:22;24.20;99.90
6581;DHT22;3324;50.796;7.228;2023-06-26T07:39:49;24.40;99.90
6581;DHT22;3324;50.796;7.228;2023-06-26T07:42:14;24.70;99.90
6581;DHT22;3324;50.796;7.228;2023-06-26T07:44:41;24.90;99.90
6581;DHT22;3324;50.796;7.228;2023-06-26T07:47:07;25.00;99.90
6581;DHT22;3324;50.796;7.228;2023-06-26T07:49:33;25.10;99.90
6581;DHT22;3324;50.796;7.228;2023-06-26T07:51:58;25.30;99.90
6581;DHT22;3324;50.796;7.228;2023-06-26T07:54:24;25.40;99.90
6581;DHT22;3324;50.796;7.228;2023-06-26T07:56:57;25.50;99.90
6581;DHT22;3324;50.796;7.228;2023-06-26T07:59:25;25.60;99.90
6581;DHT22;3324;50.796;7.228;2023-06-26T08:05:12;25.80;99.90
6581;DHT22;3324;50.796;7.228;2023-06-26T08:07:38;25.60;99.90
6581;DHT22;3324;50.796;7.228;2023-06-26T08:10:04;25.40;99.90
6581;DHT22;3324;50.796;7.228;2023-06-26T08:12:30;25.20;99.90
6581;DHT22;3324;50.796;7.228;2023-06-26T08:14:56;25.30;99.90
6581;DHT22;3324;50.796;7.228;2023-06-26T08:17:21;25.40;99.90
6581;DHT22;3324;50.796;7.228;2023-06-26T08:19:47;25.50;99.90
6581;DHT22;3324;50.796;7.228;2023-06-26T08:22:12;25.60;99.90
6581;DHT22;3324;50.796;7.228;2023-06-26T08:24:40;25.70;99.90
6581;DHT22;3324;50.796;7.228;2023-06-26T08:27:05;25.90;99.90
6581;DHT22;3324;50.796;7.228;2023-06-26T08:29:32;26.10;99.90
6581;DHT22;3324;50.796;7.228;2023-06-26T08:31:58;26.30;99.90
6581;DHT22;3324;50.796;7.228;2023-06-26T08:34:24;26.40;99.90
6581;DHT22;3324;50.796;7.228;2023-06-26T08:36:50;26.50;99.90
6581;DHT22;3324;50.796;7.228;2023-06-26T08:39:16;26.60;99.90
6581;DHT22;3324;50.796;7.228;2023-06-26T08:41:41;26.80;99.90
6581;DHT22;3324;50.796;7.228;2023-06-26T08:44:07;26.80;99.90
6581;DHT22;3324;50.796;7.228;2023-06-26T08:46:33;26.80;99.90
6581;DHT22;3324;50.796;7.228;2023-06-26T08:49:14;27.00;99.90
6581;DHT22;3324;50.796;7.228;2023-06-26T08:51:42;27.10;99.90
6581;DHT22;3324;50.796;7.228;2023-06-26T08:54:12;27.20;99.90
6581;DHT22;3324;50.796;7.228;2023-06-26T08:56:42;27.10;99.90
6581;DHT22;3324;50.796;7.228;2023-06-26T08:59:10;27.00;99.90
6581;DHT22;3324;50.796;7.228;2023-06-26T09:01:40;26.70;99.90
6581;DHT22;3324;50.796;7.228;2023-06-26T09:04:06;26.60;99.90
6581;DHT22;3324;50.796;7.228;2023-06-26T09:06:33;26.60;99.90
6581;DHT22;3324;50.796;7.228;2023-06-26T09:08:58;26.50;99.90
6581;DHT22;3324;50.796;7.228;2023-06-26T09:11:24;26.40;99.90
6581;DHT22;3324;50.796;7.228;2023-06-26T09:13:50;26.30;99.90
6581;DHT22;3324;50.796;7.228;2023-06-26T09:16:16;26.30;99.90
6581;DHT22;3324;50.796;7.228;2023-06-26T09:18:45;26.40;99.90
6581;DHT22;3324;50.796;7.228;2023-06-26T09:21:11;26.50;99.90
6581;DHT22;3324;50.796;7.228;2023-06-26T09:23:37;26.70;99.90
6581;DHT22;3324;50.796;7.228;2023-06-26T09:26:05;26.90;99.90
6581;DHT22;3324;50.796;7.228;2023-06-26T09:28:32;27.00;99.90
6581;DHT22;3324;50.796;7.228;2023-06-26T09:31:06;27.00;99.90
6581;DHT22;3324;50.796;7.228;2023-06-26T09:33:36;27.00;99.90
6581;DHT22;3324;50.796;7.228;2023-06-26T09:36:05;26.90;99.90
6581;DHT22;3324;50.796;7.228;2023-06-26T09:38:30;26.70;99.90
6581;DHT22;3324;50.796;7.228;2023-06-26T09:40:56;26.70;99.90
6581;DHT22;3324;50.796;7.228;2023-06-26T09:43:21;26.80;99.90
6581;DHT22;3324;50.796;7.228;2023-06-26T09:45:48;26.90;99.90
6581;DHT22;3324;50.796;7.228;2023-06-26T09:51:10;27.30;99.90
6581;DHT22;3324;50.796;7.228;2023-06-26T09:53:35;27.40;99.90
6581;DHT22;3324;50.796;7.228;2023-06-26T09:56:07;27.50;99.90
6581;DHT22;3324;50.796;7.228;2023-06-26T09:58:33;27.40;99.90
6581;DHT22;3324;50.796;7.228;2023-06-26T10:00:59;27.30;99.90
6581;DHT22;3324;50.796;7.228;2023-06-26T10:03:25;27.40;99.90
6581;DHT22;3324;50.796;7.228;2023-06-26T10:05:52;27.50;99.90
6581;DHT22;3324;50.796;7.228;2023-06-26T10:08:17;27.70;99.90
6581;DHT22;3324;50.796;7.228;2023-06-26T10:10:44;27.80;99.90
6581;DHT22;3324;50.796;7.228;2023-06-26T10:13:17;27.60;99.90
6581;DHT22;3324;50.796;7.228;2023-06-26T10:15:48;27.60;99.90
6581;DHT22;3324;50.796;7.228;2023-06-26T10:18:16;27.50;99.90
6581;DHT22;3324;50.796;7.228;2023-06-26T10:20:43;27.50;99.90
6581;DHT22;3324;50.796;7.228;2023-06-26T10:23:10;27.30;99.90
6581;DHT22;3324;50.796;7.228;2023-06-26T10:25:40;27.10;99.90
6581;DHT22;3324;50.796;7.228;2023-06-26T10:28:06;27.00;99.90
6581;DHT22;3324;50.796;7.228;2023-06-26T10:30:35;27.00;99.90
6581;DHT22;3324;50.796;7.228;2023-06-26T10:33:02;26.80;99.90
6581;DHT22;3324;50.796;7.228;2023-06-26T10:35:30;26.50;99.90
6581;DHT22;3324;50.796;7.228;2023-06-26T10:38:05;26.60;99.90
6581;DHT22;3324;50.796;7.228;2023-06-26T10:40:52;27.00;99.90
6581;DHT22;3324;50.796;7.228;2023-06-26T10:43:17;27.50;99.90
6581;DHT22;3324;50.796;7.228;2023-06-26T10:45:48;27.50;99.90
6581;DHT22;3324;50.796;7.228;2023-06-26T10:48:17;27.70;99.90
6581;DHT22;3324;50.796;7.228;2023-06-26T10:50:43;27.60;99.90
6581;DHT22;3324;50.796;7.228;2023-06-26T10:55:50;27.20;99.90
6581;DHT22;3324;50.796;7.228;2023-06-26T11:01:14;27.30;99.90
6581;DHT22;3324;50.796;7.228;2023-06-26T11:03:43;27.60;99.90
6581;DHT22;3324;50.796;7.228;2023-06-26T11:06:19;28.00;99.90
6581;DHT22;3324;50.796;7.228;2023-06-26T11:09:01;28.20;98.80
6581;DHT22;3324;50.796;7.228;2023-06-26T11:14:20;28.50;96.40
6581;DHT22;3324;50.796;7.228;2023-06-26T11:16:46;28.40;96.70
6581;DHT22;3324;50.796;7.228;2023-06-26T11:19:13;28.50;95.90
6581;DHT22;3324;50.796;7.228;2023-06-26T11:21:39;28.60;95.50
6581;DHT22;3324;50.796;7.228;2023-06-26T11:24:09;28.70;95.40
6581;DHT22;3324;50.796;7.228;2023-06-26T11:26:39;28.80;96.40
6581;DHT22;3324;50.796;7.228;2023-06-26T11:29:05;28.60;95.40
6581;DHT22;3324;50.796;7.228;2023-06-26T11:31:32;28.40;94.80
6581;DHT22;3324;50.796;7.228;2023-06-26T11:34:00;28.40;94.90
6581;DHT22;3324;50.796;7.228;2023-06-26T11:36:26;28.40;96.70
6581;DHT22;3324;50.796;7.228;2023-06-26T11:38:58;28.30;95.70
6581;DHT22;3324;50.796;7.228;2023-06-26T11:41:27;28.00;96.30
6581;DHT22;3324;50.796;7.228;2023-06-26T11:43:53;27.70;95.10
6581;DHT22;3324;50.796;7.228;2023-06-26T11:46:20;27.40;96.90
6581;DHT22;3324;50.796;7.228;2023-06-26T11:48:46;27.30;96.90
6581;DHT22;3324;50.796;7.228;2023-06-26T11:51:13;27.30;96.50
6581;DHT22;3324;50.796;7.228;2023-06-26T11:53:41;27.50;98.20
6581;DHT22;3324;50.796;7.228;2023-06-26T11:56:11;27.90;96.40
6581;DHT22;3324;50.796;7.228;2023-06-26T11:59:12;28.00;95.90
6581;DHT22;3324;50.796;7.228;2023-06-26T12:01:43;28.10;95.50
6581;DHT22;3324;50.796;7.228;2023-06-26T12:04:16;28.10;95.70
6581;DHT22;3324;50.796;7.228;2023-06-26T12:06:46;27.90;96.30
6581;DHT22;3324;50.796;7.228;2023-06-26T12:09:12;27.80;96.80
6581;DHT22;3324;50.796;7.228;2023-06-26T12:11:41;27.60;96.70
6581;DHT22;3324;50.796;7.228;2023-06-26T12:14:08;27.40;96.40
6581;DHT22;3324;50.796;7.228;2023-06-26T12:16:35;27.30;97.60
6581;DHT22;3324;50.796;7.228;2023-06-26T12:19:05;27.20;97.60
6581;DHT22;3324;50.796;7.228;2023-06-26T12:21:44;27.10;98.30
6581;DHT22;3324;50.796;7.228;2023-06-26T12:24:13;27.20;97.20
6581;DHT22;3324;50.796;7.228;2023-06-26T12:26:45;27.10;97.10
6581;DHT22;3324;50.796;7.228;2023-06-26T12:29:16;27.00;96.70
6581;DHT22;3324;50.796;7.228;2023-06-26T12:31:51;27.20;97.00
6581;DHT22;3324;50.796;7.228;2023-06-26T12:34:20;27.40;96.70
6581;DHT22;3324;50.796;7.228;2023-06-26T12:36:50;27.40;94.70
6581;DHT22;3324;50.796;7.228;2023-06-26T12:39:20;27.70;92.60
6581;DHT22;3324;50.796;7.228;2023-06-26T12:41:54;27.90;94.40
6581;DHT22;3324;50.796;7.228;2023-06-26T12:44:30;28.10;93.90
6581;DHT22;3324;50.796;7.228;2023-06-26T12:46:59;28.30;93.20
6581;DHT22;3324;50.796;7.228;2023-06-26T12:49:38;28.20;93.10
6581;DHT22;3324;50.796;7.228;2023-06-26T12:52:09;28.10;93.60
6581;DHT22;3324;50.796;7.228;2023-06-26T12:54:36;28.00;93.50
6581;DHT22;3324;50.796;7.228;2023-06-26T12:57:02;27.70;95.30
6581;DHT22;3324;50.796;7.228;2023-06-26T12:59:32;27.70;95.20
6581;DHT22;3324;50.796;7.228;2023-06-26T13:01:58;27.50;94.50
6581;DHT22;3324;50.796;7.228;2023-06-26T13:04:24;27.50;96.20
6581;DHT22;3324;50.796;7.228;2023-06-26T13:06:50;27.60;94.90
6581;DHT22;3324;50.796;7.228;2023-06-26T13:09:16;27.80;93.90
6581;DHT22;3324;50.796;7.228;2023-06-26T13:11:42;28.00;91.60
6581;DHT22;3324;50.796;7.228;2023-06-26T13:14:08;27.80;93.00
6581;DHT22;3324;50.796;7.228;2023-06-26T13:16:33;27.70;92.30
6581;DHT22;3324;50.796;7.228;2023-06-26T13:18:59;27.50;91.90
6581;DHT22;3324;50.796;7.228;2023-06-26T13:21:26;27.20;92.30
6581;DHT22;3324;50.796;7.228;2023-06-26T13:23:52;27.20;92.10
6581;DHT22;3324;50.796;7.228;2023-06-26T13:26:18;27.20;92.80
6581;DHT22;3324;50.796;7.228;2023-06-26T13:28:44;27.10;93.80
6581;DHT22;3324;50.796;7.228;2023-06-26T13:31:09;27.00;93.60
6581;DHT22;3324;50.796;7.228;2023-06-26T13:33:35;26.90;94.30
6581;DHT22;3324;50.796;7.228;2023-06-26T13:36:00;26.80;93.90
6581;DHT22;3324;50.796;7.228;2023-06-26T13:38:30;26.90;94.90
6581;DHT22;3324;50.796;7.228;2023-06-26T13:40:55;27.20;93.30
6581;DHT22;3324;50.796;7.228;2023-06-26T13:43:26;27.20;92.90
6581;DHT22;3324;50.796;7.228;2023-06-26T13:45:52;27.10;93.20
6581;DHT22;3324;50.796;7.228;2023-06-26T13:48:18;27.00;94.70
6581;DHT22;3324;50.796;7.228;2023-06-26T13:50:44;26.80;93.30
6581;DHT22;3324;50.796;7.228;2023-06-26T13:53:10;26.80;94.50
6581;DHT22;3324;50.796;7.228;2023-06-26T13:55:35;26.70;92.20
6581;DHT22;3324;50.796;7.228;2023-06-26T13:58:03;26.60;93.50
6581;DHT22;3324;50.796;7.228;2023-06-26T14:00:30;26.50;92.70
6581;DHT22;3324;50.796;7.228;2023-06-26T14:02:56;26.30;93.00
6581;DHT22;3324;50.796;7.228;2023-06-26T14:05:22;26.30;92.40
6581;DHT22;3324;50.796;7.228;2023-06-26T14:07:48;26.30;91.90
6581;DHT22;3324;50.796;7.228;2023-06-26T14:10:14;26.40;91.60
6581;DHT22;3324;50.796;7.228;2023-06-26T14:12:40;26.50;91.70
6581;DHT22;3324;50.796;7.228;2023-06-26T14:15:06;26.60;92.00
6581;DHT22;3324;50.796;7.228;2023-06-26T14:17:32;26.80;92.30
6581;DHT22;3324;50.796;7.228;2023-06-26T14:19:58;26.80;93.00
6581;DHT22;3324;50.796;7.228;2023-06-26T14:22:24;26.80;92.40
6581;DHT22;3324;50.796;7.228;2023-06-26T14:24:50;26.80;91.40
6581;DHT22;3324;50.796;7.228;2023-06-26T14:27:16;26.90;92.70
6581;DHT22;3324;50.796;7.228;2023-06-26T14:29:41;26.90;91.30
6581;DHT22;3324;50.796;7.228;2023-06-26T14:32:07;27.00;91.30
6581;DHT22;3324;50.796;7.228;2023-06-26T14:34:33;27.00;91.80
6581;DHT22;3324;50.796;7.228;2023-06-26T14:36:58;26.90;90.60
6581;DHT22;3324;50.796;7.228;2023-06-26T14:39:24;26.80;91.50
6581;DHT22;3324;50.796;7.228;2023-06-26T14:41:50;26.80;90.40
6581;DHT22;3324;50.796;7.228;2023-06-26T14:44:16;26.80;90.50
6581;DHT22;3324;50.796;7.228;2023-06-26T14:46:41;26.70;90.90
6581;DHT22;3324;50.796;7.228;2023-06-26T14:49:07;26.70;88.10
6581;DHT22;3324;50.796;7.228;2023-06-26T14:51:33;26.70;90.10
6581;DHT22;3324;50.796;7.228;2023-06-26T14:53:59;26.70;90.70
6581;DHT22;3324;50.796;7.228;2023-06-26T14:56:25;26.60;90.20
6581;DHT22;3324;50.796;7.228;2023-06-26T14:58:50;26.60;88.70
6581;DHT22;3324;50.796;7.228;2023-06-26T15:01:19;26.50;87.00
6581;DHT22;3324;50.796;7.228;2023-06-26T15:03:48;26.40;85.90
6581;DHT22;3324;50.796;7.228;2023-06-26T15:06:14;26.40;87.40
6581;DHT22;3324;50.796;7.228;2023-06-26T15:08:40;26.30;86.90
6581;DHT22;3324;50.796;7.228;2023-06-26T15:11:05;26.20;88.50
6581;DHT22;3324;50.796;7.228;2023-06-26T15:13:31;26.00;87.60
6581;DHT22;3324;50.796;7.228;2023-06-26T15:15:56;25.90;87.10
6581;DHT22;3324;50.796;7.228;2023-06-26T15:18:22;25.90;88.30
6581;DHT22;3324;50.796;7.228;2023-06-26T15:20:48;26.00;87.60
6581;DHT22;3324;50.796;7.228;2023-06-26T15:23:13;26.10;85.40
6581;DHT22;3324;50.796;7.228;2023-06-26T15:25:39;26.20;87.90
6581;DHT22;3324;50.796;7.228;2023-06-26T15:28:06;26.20;85.90
6581;DHT22;3324;50.796;7.228;2023-06-26T15:30:31;26.20;89.50
6581;DHT22;3324;50.796;7.228;2023-06-26T15:32:57;26.10;89.70
6581;DHT22;3324;50.796;7.228;2023-06-26T15:35:23;26.10;88.70
6581;DHT22;3324;50.796;7.228;2023-06-26T15:37:48;25.90;90.00
6581;DHT22;3324;50.796;7.228;2023-06-26T15:40:15;25.80;88.20
6581;DHT22;3324;50.796;7.228;2023-06-26T15:42:51;25.90;91.30
6581;DHT22;3324;50.796;7.228;2023-06-26T15:45:18;25.90;88.60
6581;DHT22;3324;50.796;7.228;2023-06-26T15:47:44;25.80;90.60
6581;DHT22;3324;50.796;7.228;2023-06-26T15:50:10;25.80;90.20
6581;DHT22;3324;50.796;7.228;2023-06-26T15:52:37;25.60;90.90
6581;DHT22;3324;50.796;7.228;2023-06-26T15:55:03;25.60;90.00
6581;DHT22;3324;50.796;7.228;2023-06-26T15:57:31;25.50;90.80
6581;DHT22;3324;50.796;7.228;2023-06-26T15:59:57;25.50;89.60
6581;DHT22;3324;50.796;7.228;2023-06-26T16:02:22;25.40;88.90
6581;DHT22;3324;50.796;7.228;2023-06-26T16:04:48;25.30;88.60
6581;DHT22;3324;50.796;7.228;2023-06-26T16:07:13;25.40;88.50
6581;DHT22;3324;50.796;7.228;2023-06-26T16:09:39;25.40;88.80
6581;DHT22;3324;50.796;7.228;2023-06-26T16:12:05;25.30;87.40
6581;DHT22;3324;50.796;7.228;2023-06-26T16:14:30;25.30;88.90
6581;DHT22;3324;50.796;7.228;2023-06-26T16:16:56;25.40;87.50
6581;DHT22;3324;50.796;7.228;2023-06-26T16:19:21;25.30;87.60
6581;DHT22;3324;50.796;7.228;2023-06-26T16:21:47;25.30;90.00
6581;DHT22;3324;50.796;7.228;2023-06-26T16:24:12;25.30;89.50
6581;DHT22;3324;50.796;7.228;2023-06-26T16:26:39;25.30;85.90
6581;DHT22;3324;50.796;7.228;2023-06-26T16:29:05;25.40;88.60
6581;DHT22;3324;50.796;7.228;2023-06-26T16:31:31;25.40;88.70
6581;DHT22;3324;50.796;7.228;2023-06-26T16:33:57;25.30;85.20
6581;DHT22;3324;50.796;7.228;2023-06-26T16:36:22;25.30;85.90
6581;DHT22;3324;50.796;7.228;2023-06-26T16:38:48;25.20;87.80
6581;DHT22;3324;50.796;7.228;2023-06-26T16:41:14;25.10;86.60
6581;DHT22;3324;50.796;7.228;2023-06-26T16:43:39;24.90;88.70
6581;DHT22;3324;50.796;7.228;2023-06-26T16:46:05;24.80;88.40
6581;DHT22;3324;50.796;7.228;2023-06-26T16:48:31;24.80;87.10
6581;DHT22;3324;50.796;7.228;2023-06-26T16:50:56;24.70;88.80
6581;DHT22;3324;50.796;7.228;2023-06-26T16:53:22;24.70;88.30
6581;DHT22;3324;50.796;7.228;2023-06-26T16:55:47;24.70;87.50
6581;DHT22;3324;50.796;7.228;2023-06-26T16:58:14;24.70;88.90
6581;DHT22;3324;50.796;7.228;2023-06-26T17:00:39;24.70;86.40
6581;DHT22;3324;50.796;7.228;2023-06-26T17:03:05;24.60;87.80
6581;DHT22;3324;50.796;7.228;2023-06-26T17:05:31;24.50;87.60
6581;DHT22;3324;50.796;7.228;2023-06-26T17:07:57;24.50;89.10
6581;DHT22;3324;50.796;7.228;2023-06-26T17:10:22;24.50;87.80
6581;DHT22;3324;50.796;7.228;2023-06-26T17:12:48;24.50;88.90
6581;DHT22;3324;50.796;7.228;2023-06-26T17:15:14;24.30;89.50
6581;DHT22;3324;50.796;7.228;2023-06-26T17:17:40;24.30;88.60
6581;DHT22;3324;50.796;7.228;2023-06-26T17:20:06;24.30;90.00
6581;DHT22;3324;50.796;7.228;2023-06-26T17:22:36;24.30;89.20
6581;DHT22;3324;50.796;7.228;2023-06-26T17:25:02;24.30;88.50
6581;DHT22;3324;50.796;7.228;2023-06-26T17:27:32;24.20;90.60
6581;DHT22;3324;50.796;7.228;2023-06-26T17:29:59;24.30;90.00
6581;DHT22;3324;50.796;7.228;2023-06-26T17:32:25;24.20;91.30
6581;DHT22;3324;50.796;7.228;2023-06-26T17:34:51;24.20;90.60
6581;DHT22;3324;50.796;7.228;2023-06-26T17:37:17;24.10;90.00
6581;DHT22;3324;50.796;7.228;2023-06-26T17:39:42;24.00;90.40
6581;DHT22;3324;50.796;7.228;2023-06-26T17:42:08;23.90;88.90
6581;DHT22;3324;50.796;7.228;2023-06-26T17:44:34;23.90;90.20
6581;DHT22;3324;50.796;7.228;2023-06-26T17:47:01;23.90;90.20
6581;DHT22;3324;50.796;7.228;2023-06-26T17:49:26;23.90;90.00
6581;DHT22;3324;50.796;7.228;2023-06-26T17:51:52;23.90;88.20
6581;DHT22;3324;50.796;7.228;2023-06-26T17:54:18;23.80;90.00
6581;DHT22;3324;50.796;7.228;2023-06-26T17:56:44;23.80;90.40
6581;DHT22;3324;50.796;7.228;2023-06-26T17:59:13;23.80;89.80
6581;DHT22;3324;50.796;7.228;2023-06-26T18:01:40;23.70;90.00
6581;DHT22;3324;50.796;7.228;2023-06-26T18:04:07;23.70;90.70
6581;DHT22;3324;50.796;7.228;2023-06-26T18:06:32;23.70;90.40
6581;DHT22;3324;50.796;7.228;2023-06-26T18:08:58;23.50;90.80
6581;DHT22;3324;50.796;7.228;2023-06-26T18:11:24;23.50;90.40
6581;DHT22;3324;50.796;7.228;2023-06-26T18:13:50;23.40;90.60
6581;DHT22;3324;50.796;7.228;2023-06-26T18:16:16;23.40;90.80
6581;DHT22;3324;50.796;7.228;2023-06-26T18:18:41;23.40;91.60
6581;DHT22;3324;50.796;7.228;2023-06-26T18:21:07;23.40;90.80
6581;DHT22;3324;50.796;7.228;2023-06-26T18:23:33;23.50;91.00
6581;DHT22;3324;50.796;7.228;2023-06-26T18:25:59;23.40;91.30
6581;DHT22;3324;50.796;7.228;2023-06-26T18:28:25;23.40;91.90
6581;DHT22;3324;50.796;7.228;2023-06-26T18:30:51;23.20;91.40
6581;DHT22;3324;50.796;7.228;2023-06-26T18:33:16;23.20;92.00
6581;DHT22;3324;50.796;7.228;2023-06-26T18:35:42;23.20;92.50
6581;DHT22;3324;50.796;7.228;2023-06-26T18:38:08;23.20;92.90
6581;DHT22;3324;50.796;7.228;2023-06-26T18:40:37;23.20;92.80
6581;DHT22;3324;50.796;7.228;2023-06-26T18:43:03;23.10;93.10
6581;DHT22;3324;50.796;7.228;2023-06-26T18:45:29;23.00;92.50
6581;DHT22;3324;50.796;7.228;2023-06-26T18:47:55;22.90;92.60
6581;DHT22;3324;50.796;7.228;2023-06-26T18:50:20;22.90;94.60
6581;DHT22;3324;50.796;7.228;2023-06-26T18:52:50;22.90;93.80
6581;DHT22;3324;50.796;7.228;2023-06-26T18:55:16;22.90;94.10
6581;DHT22;3324;50.796;7.228;2023-06-26T18:57:42;22.80;93.90
6581;DHT22;3324;50.796;7.228;2023-06-26T19:00:08;22.80;95.00
6581;DHT22;3324;50.796;7.228;2023-06-26T19:02:34;22.80;95.60
6581;DHT22;3324;50.796;7.228;2023-06-26T19:05:01;22.60;94.60
6581;DHT22;3324;50.796;7.228;2023-06-26T19:07:26;22.60;95.70
6581;DHT22;3324;50.796;7.228;2023-06-26T19:09:52;22.50;95.30
6581;DHT22;3324;50.796;7.228;2023-06-26T19:12:17;22.40;97.30
6581;DHT22;3324;50.796;7.228;2023-06-26T19:14:44;22.40;96.60
6581;DHT22;3324;50.796;7.228;2023-06-26T19:17:10;22.30;95.40
6581;DHT22;3324;50.796;7.228;2023-06-26T19:19:36;22.30;95.90
6581;DHT22;3324;50.796;7.228;2023-06-26T19:22:02;22.20;95.60
6581;DHT22;3324;50.796;7.228;2023-06-26T19:24:27;22.10;95.70
6581;DHT22;3324;50.796;7.228;2023-06-26T19:26:53;22.10;97.00
6581;DHT22;3324;50.796;7.228;2023-06-26T19:29:25;22.00;96.70
6581;DHT22;3324;50.796;7.228;2023-06-26T19:31:51;22.10;98.00
6581;DHT22;3324;50.796;7.228;2023-06-26T19:34:19;21.80;97.10
6581;DHT22;3324;50.796;7.228;2023-06-26T19:36:45;21.80;97.20
6581;DHT22;3324;50.796;7.228;2023-06-26T19:39:10;21.80;97.20
6581;DHT22;3324;50.796;7.228;2023-06-26T19:41:36;21.80;97.50
6581;DHT22;3324;50.796;7.228;2023-06-26T19:44:02;21.80;95.70
6581;DHT22;3324;50.796;7.228;2023-06-26T19:46:28;21.70;97.50
6581;DHT22;3324;50.796;7.228;2023-06-26T19:48:53;21.70;98.90
6581;DHT22;3324;50.796;7.228;2023-06-26T19:51:19;21.60;96.80
6581;DHT22;3324;50.796;7.228;2023-06-26T19:53:45;21.60;97.90
6581;DHT22;3324;50.796;7.228;2023-06-26T19:56:11;21.70;96.60
6581;DHT22;3324;50.796;7.228;2023-06-26T19:58:38;21.60;95.60
6581;DHT22;3324;50.796;7.228;2023-06-26T20:01:03;21.60;95.80
6581;DHT22;3324;50.796;7.228;2023-06-26T20:03:29;21.50;96.70
6581;DHT22;3324;50.796;7.228;2023-06-26T20:05:55;21.40;96.60
6581;DHT22;3324;50.796;7.228;2023-06-26T20:08:20;21.30;96.60
6581;DHT22;3324;50.796;7.228;2023-06-26T20:10:46;21.30;97.60
6581;DHT22;3324;50.796;7.228;2023-06-26T20:13:11;21.30;97.00
6581;DHT22;3324;50.796;7.228;2023-06-26T20:15:37;21.30;98.30
6581;DHT22;3324;50.796;7.228;2023-06-26T20:18:04;21.20;98.30
6581;DHT22;3324;50.796;7.228;2023-06-26T20:20:29;21.20;97.70
6581;DHT22;3324;50.796;7.228;2023-06-26T20:22:55;21.10;97.40
6581;DHT22;3324;50.796;7.228;2023-06-26T20:25:21;21.10;97.50
6581;DHT22;3324;50.796;7.228;2023-06-26T20:27:47;21.00;97.90
6581;DHT22;3324;50.796;7.228;2023-06-26T20:30:13;21.00;98.40
6581;DHT22;3324;50.796;7.228;2023-06-26T20:32:39;20.90;98.10
6581;DHT22;3324;50.796;7.228;2023-06-26T20:35:05;20.90;98.00
6581;DHT22;3324;50.796;7.228;2023-06-26T20:37:30;20.80;97.70
6581;DHT22;3324;50.796;7.228;2023-06-26T20:39:56;20.80;99.10
6581;DHT22;3324;50.796;7.228;2023-06-26T20:42:22;20.80;99.00
6581;DHT22;3324;50.796;7.228;2023-06-26T20:44:48;20.80;98.60
6581;DHT22;3324;50.796;7.228;2023-06-26T20:47:16;20.70;99.00
6581;DHT22;3324;50.796;7.228;2023-06-26T20:49:44;20.70;98.90
6581;DHT22;3324;50.796;7.228;2023-06-26T20:52:11;20.60;99.10
6581;DHT22;3324;50.796;7.228;2023-06-26T20:54:38;20.60;99.90
6581;DHT22;3324;50.796;7.228;2023-06-26T20:57:07;20.50;99.60
6581;DHT22;3324;50.796;7.228;2023-06-26T20:59:34;20.50;99.90
6581;DHT22;3324;50.796;7.228;2023-06-26T21:01:59;20.40;99.90
6581;DHT22;3324;50.796;7.228;2023-06-26T21:04:25;20.30;99.80
6581;DHT22;3324;50.796;7.228;2023-06-26T21:06:50;20.30;99.90
6581;DHT22;3324;50.796;7.228;2023-06-26T21:09:16;20.30;99.90
6581;DHT22;3324;50.796;7.228;2023-06-26T21:11:41;20.20;99.90
6581;DHT22;3324;50.796;7.228;2023-06-26T21:14:07;20.20;99.90
6581;DHT22;3324;50.796;7.228;2023-06-26T21:16:33;20.10;99.90
6581;DHT22;3324;50.796;7.228;2023-06-26T21:18:58;20.10;99.90
6581;DHT22;3324;50.796;7.228;2023-06-26T21:21:24;20.20;99.90
6581;DHT22;3324;50.796;7.228;2023-06-26T21:23:49;20.10;99.90
6581;DHT22;3324;50.796;7.228;2023-06-26T21:26:15;20.10;99.90
6581;DHT22;3324;50.796;7.228;2023-06-26T21:28:40;20.00;99.90
6581;DHT22;3324;50.796;7.228;2023-06-26T21:31:06;20.00;99.90
6581;DHT22;3324;50.796;7.228;2023-06-26T21:33:32;19.90;99.90
6581;DHT22;3324;50.796;7.228;2023-06-26T21:35:58;19.80;99.90
6581;DHT22;3324;50.796;7.228;2023-06-26T21:38:24;19.80;99.90
6581;DHT22;3324;50.796;7.228;2023-06-26T21:40:49;19.80;99.90
6581;DHT22;3324;50.796;7.228;2023-06-26T21:43:15;19.80;99.90
6581;DHT22;3324;50.796;7.228;2023-06-26T21:45:40;19.70;99.90
6581;DHT22;3324;50.796;7.228;2023-06-26T21:48:06;19.70;99.90
6581;DHT22;3324;50.796;7.228;2023-06-26T21:50:32;19.70;99.90
6581;DHT22;3324;50.796;7.228;2023-06-26T21:52:58;19.70;99.90
6581;DHT22;3324;50.796;7.228;2023-06-26T21:55:23;19.70;99.90
6581;DHT22;3324;50.796;7.228;2023-06-26T21:57:49;19.60;99.90
6581;DHT22;3324;50.796;7.228;2023-06-26T22:00:15;19.60;99.90
6581;DHT22;3324;50.796;7.228;2023-06-26T22:02:41;19.60;99.90
6581;DHT22;3324;50.796;7.228;2023-06-26T22:05:07;19.60;99.90
6581;DHT22;3324;50.796;7.228;2023-06-26T22:07:35;19.50;99.90
6581;DHT22;3324;50.796;7.228;2023-06-26T22:10:01;19.40;99.90
6581;DHT22;3324;50.796;7.228;2023-06-26T22:12:27;19.40;99.90
6581;DHT22;3324;50.796;7.228;2023-06-26T22:14:52;19.40;99.90
6581;DHT22;3324;50.796;7.228;2023-06-26T22:17:18;19.40;99.90
6581;DHT22;3324;50.796;7.228;2023-06-26T22:19:43;19.30;99.90
6581;DHT22;3324;50.796;7.228;2023-06-26T22:22:09;19.30;99.90
6581;DHT22;3324;50.796;7.228;2023-06-26T22:24:35;19.20;99.90
6581;DHT22;3324;50.796;7.228;2023-06-26T22:27:00;19.10;99.90
6581;DHT22;3324;50.796;7.228;2023-06-26T22:29:26;19.10;99.90
6581;DHT22;3324;50.796;7.228;2023-06-26T22:31:52;19.00;99.90
6581;DHT22;3324;50.796;7.228;2023-06-26T22:34:18;19.00;99.90
6581;DHT22;3324;50.796;7.228;2023-06-26T22:36:43;18.90;99.90
6581;DHT22;3324;50.796;7.228;2023-06-26T22:39:10;18.90;99.90
6581;DHT22;3324;50.796;7.228;2023-06-26T22:41:35;18.90;99.90
6581;DHT22;3324;50.796;7.228;2023-06-26T22:44:01;18.80;99.90
6581;DHT22;3324;50.796;7.228;2023-06-26T22:46:27;18.90;99.90
6581;DHT22;3324;50.796;7.228;2023-06-26T22:48:52;18.80;99.90
6581;DHT22;3324;50.796;7.228;2023-06-26T22:51:18;18.80;99.90
6581;DHT22;3324;50.796;7.228;2023-06-26T22:53:43;18.80;99.90
6581;DHT22;3324;50.796;7.228;2023-06-26T22:56:09;18.70;99.90
6581;DHT22;3324;50.796;7.228;2023-06-26T22:58:34;18.70;99.90
6581;DHT22;3324;50.796;7.228;2023-06-26T23:01:00;18.70;99.90
6581;DHT22;3324;50.796;7.228;2023-06-26T23:03:27;18.60;99.90
6581;DHT22;3324;50.796;7.228;2023-06-26T23:05:52;18.50;99.90
6581;DHT22;3324;50.796;7.228;2023-06-26T23:08:23;18.60;99.90
6581;DHT22;3324;50.796;7.228;2023-06-26T23:10:50;18.50;99.90
6581;DHT22;3324;50.796;7.228;2023-06-26T23:13:15;18.50;99.90
6581;DHT22;3324;50.796;7.228;2023-06-26T23:15:41;18.50;99.90
6581;DHT22;3324;50.796;7.228;2023-06-26T23:18:07;18.50;99.90
6581;DHT22;3324;50.796;7.228;2023-06-26T23:20:33;18.40;99.90
6581;DHT22;3324;50.796;7.228;2023-06-26T23:22:59;18.30;99.90
6581;DHT22;3324;50.796;7.228;2023-06-26T23:25:26;18.30;99.90
6581;DHT22;3324;50.796;7.228;2023-06-26T23:28:07;18.30;99.90
6581;DHT22;3324;50.796;7.228;2023-06-26T23:30:34;18.20;99.90
6581;DHT22;3324;50.796;7.228;2023-06-26T23:33:00;18.20;99.90
6581;DHT22;3324;50.796;7.228;2023-06-26T23:35:31;18.20;99.90
6581;DHT22;3324;50.796;7.228;2023-06-26T23:37:57;18.20;99.90
6581;DHT22;3324;50.796;7.228;2023-06-26T23:40:26;18.20;99.90
6581;DHT22;3324;50.796;7.228;2023-06-26T23:42:52;18.20;99.90
6581;DHT22;3324;50.796;7.228;2023-06-26T23:45:17;18.20;99.90